Time;durP1;ratioP1;P1;durP2;ratioP2;P2;SDS_P1;SDS_P2;PMS_P1;PMS_P2;Temp;Humidity;BMP_temperature;BMP_pressure;BME280_temperature;BME280_humidity;BME280_pressure;Samples;Min_cycle;Max_cycle;Signal;HPM_P1;HPM_P2
2022/11/23 00:01:46;;;;;;;6.38;3.55;;;;;;;;;;4893363;29;20032;-88
2022/11/23 00:04:12;;;;;;;7.05;3.40;;;;;;;;;;4874324;29;20080;-89
2022/11/23 00:06:38;;;;;;;7.60;3.72;;;;;;;;;;4868291;29;20418;-89
2022/11/23 00:09:04;;;;;;;8.32;4.00;;;;;;;;;;4875631;29;20029;-86
2022/11/23 00:11:29;;;;;;;6.75;3.60;;;;;;;;;;4880451;29;20038;-90
2022/11/23 00:13:55;;;;;;;9.23;3.63;;;;;;;;;;4879102;29;20501;-87
2022/11/23 00:16:23;;;;;;;8.32;3.67;;;;;;;;;;4886596;29;20039;-88
2022/11/23 00:18:52;;;;;;;8.32;3.63;;;;;;;;;;4887290;29;20081;-88
2022/11/23 00:21:18;;;;;;;8.07;4.00;;;;;;;;;;4887759;29;20064;-88
2022/11/23 00:23:44;;;;;;;9.40;3.75;;;;;;;;;;4889836;29;20479;-88
2022/11/23 00:26:10;;;;;;;9.00;3.85;;;;;;;;;;4887823;29;20040;-89
2022/11/23 00:28:38;;;;;;;8.15;3.80;;;;;;;;;;4870006;29;20064;-89
2022/11/23 00:31:08;;;;;;;7.93;3.85;;;;;;;;;;4872399;29;20040;-90
2022/11/23 00:33:33;;;;;;;9.20;4.05;;;;;;;;;;4876468;29;20112;-89
2022/11/23 00:36:11;;;;;;;8.20;4.05;;;;;;;;;;4873733;29;20116;-89
2022/11/23 00:38:37;;;;;;;11.13;4.40;;;;;;;;;;4876469;29;20541;-89
2022/11/23 00:41:05;;;;;;;6.25;3.70;;;;;;;;;;4881554;29;20040;-89
2022/11/23 00:43:31;;;;;;;9.00;3.88;;;;;;;;;;4876540;29;20037;-88
2022/11/23 00:46:06;;;;;;;9.20;4.10;;;;;;;;;;4875460;29;20040;-90
2022/11/23 00:48:31;;;;;;;8.38;3.70;;;;;;;;;;4884433;29;20024;-89
2022/11/23 00:51:00;;;;;;;9.43;3.33;;;;;;;;;;4876998;29;20036;-90
2022/11/23 00:53:25;;;;;;;6.47;3.75;;;;;;;;;;4887298;29;20108;-90
2022/11/23 00:55:55;;;;;;;10.82;3.95;;;;;;;;;;4897200;29;20130;-90
2022/11/23 00:58:21;;;;;;;6.75;3.58;;;;;;;;;;4890863;29;20040;-89
2022/11/23 01:00:47;;;;;;;8.07;3.78;;;;;;;;;;4894886;29;20524;-90
2022/11/23 01:03:13;;;;;;;8.13;3.40;;;;;;;;;;4877276;29;20052;-89
2022/11/23 01:05:38;;;;;;;10.32;3.60;;;;;;;;;;4892107;29;20478;-90
2022/11/23 01:08:05;;;;;;;6.75;2.75;;;;;;;;;;4886352;29;20089;-90
2022/11/23 01:10:31;;;;;;;8.07;3.60;;;;;;;;;;4881046;29;20908;-90
2022/11/23 01:12:57;;;;;;;10.23;3.22;;;;;;;;;;4874638;29;20032;-89
2022/11/23 01:15:22;;;;;;;8.02;3.10;;;;;;;;;;4875341;29;20029;-91
2022/11/23 01:17:47;;;;;;;7.03;2.63;;;;;;;;;;4871475;29;20024;-90
2022/11/23 01:20:13;;;;;;;7.32;2.63;;;;;;;;;;4868791;29;20025;-90
2022/11/23 01:22:38;;;;;;;6.93;3.00;;;;;;;;;;4876088;29;20132;-90
2022/11/23 01:25:04;;;;;;;7.03;2.85;;;;;;;;;;4886024;29;20523;-89
2022/11/23 01:27:30;;;;;;;7.25;2.95;;;;;;;;;;4883737;29;20127;-89
2022/11/23 01:29:55;;;;;;;7.47;2.60;;;;;;;;;;4874120;29;20028;-91
2022/11/23 01:32:20;;;;;;;8.90;2.60;;;;;;;;;;4879592;29;20028;-90
2022/11/23 01:34:46;;;;;;;5.85;2.25;;;;;;;;;;4871386;29;20025;-88
2022/11/23 01:37:11;;;;;;;7.50;2.30;;;;;;;;;;4885160;29;20398;-88
2022/11/23 01:39:36;;;;;;;7.60;2.65;;;;;;;;;;4871744;29;20073;-90
2022/11/23 01:42:05;;;;;;;4.53;2.10;;;;;;;;;;4873139;29;20033;-89
2022/11/23 01:44:37;;;;;;;6.32;2.60;;;;;;;;;;4887061;29;20033;-91
2022/11/23 01:47:07;;;;;;;8.80;2.80;;;;;;;;;;4876300;29;20494;-87
2022/11/23 01:49:38;;;;;;;8.00;2.88;;;;;;;;;;4869912;29;20029;-90
2022/11/23 01:52:11;;;;;;;7.53;2.72;;;;;;;;;;4872701;29;20131;-90
2022/11/23 01:54:45;;;;;;;5.43;2.20;;;;;;;;;;4873742;29;20029;-88
2022/11/23 01:57:22;;;;;;;7.10;2.88;;;;;;;;;;4871678;29;20406;-91
2022/11/23 01:59:48;;;;;;;5.20;2.40;;;;;;;;;;4871392;29;20021;-91
2022/11/23 02:02:15;;;;;;;5.43;2.30;;;;;;;;;;4872140;29;20061;-90
2022/11/23 02:04:44;;;;;;;6.82;2.50;;;;;;;;;;4879852;29;20048;-87
2022/11/23 02:07:10;;;;;;;6.32;2.78;;;;;;;;;;4873664;29;20081;-88
2022/11/23 02:09:37;;;;;;;8.27;2.20;;;;;;;;;;4869071;29;20037;-91
2022/11/23 02:12:09;;;;;;;9.68;2.78;;;;;;;;;;4873421;29;20025;-88
2022/11/23 02:14:35;;;;;;;8.48;2.78;;;;;;;;;;4876760;29;20124;-90
2022/11/23 02:17:00;;;;;;;5.75;2.22;;;;;;;;;;4875339;29;20093;-88
2022/11/23 02:20:07;;;;;;;7.32;2.75;;;;;;;;;;4878683;29;20041;-90
2022/11/23 02:23:01;;;;;;;8.75;2.75;;;;;;;;;;4866172;29;20069;-90
2022/11/23 02:25:50;;;;;;;7.15;2.25;;;;;;;;;;4873811;29;20056;-88
2022/11/23 02:28:30;;;;;;;6.30;2.35;;;;;;;;;;4875511;29;20063;-90
2022/11/23 02:30:55;;;;;;;6.07;2.45;;;;;;;;;;4879124;29;20068;-88
2022/11/23 02:33:21;;;;;;;6.00;2.08;;;;;;;;;;4890606;29;20060;-89
2022/11/23 02:35:49;;;;;;;6.25;2.30;;;;;;;;;;4874690;29;20371;-90
2022/11/23 02:38:15;;;;;;;6.03;2.20;;;;;;;;;;4869419;29;20048;-90
2022/11/23 02:40:41;;;;;;;7.20;2.08;;;;;;;;;;4873186;29;20486;-89
2022/11/23 02:43:06;;;;;;;5.32;2.00;;;;;;;;;;4863846;29;20078;-90
2022/11/23 02:45:55;;;;;;;8.02;1.90;;;;;;;;;;4887816;29;20375;-88
2022/11/23 02:48:21;;;;;;;6.35;1.88;;;;;;;;;;4870751;29;20037;-90
2022/11/23 02:50:46;;;;;;;4.22;1.52;;;;;;;;;;4892067;29;20059;-90
2022/11/23 02:53:12;;;;;;;6.53;1.70;;;;;;;;;;4871246;29;20382;-89
2022/11/23 02:55:38;;;;;;;4.53;1.90;;;;;;;;;;4872341;29;20081;-90
2022/11/23 02:58:04;;;;;;;6.70;2.25;;;;;;;;;;4873241;29;20028;-90
2022/11/23 03:00:31;;;;;;;6.03;1.73;;;;;;;;;;4871068;29;20703;-90
2022/11/23 03:02:59;;;;;;;5.50;1.38;;;;;;;;;;4873784;29;20057;-90
2022/11/23 03:05:24;;;;;;;5.20;1.80;;;;;;;;;;4875447;29;20461;-90
2022/11/23 03:07:50;;;;;;;7.40;1.83;;;;;;;;;;4867604;29;20270;-91
2022/11/23 03:10:16;;;;;;;7.38;1.80;;;;;;;;;;4870428;29;20057;-90
2022/11/23 03:12:41;;;;;;;5.10;1.85;;;;;;;;;;4875069;29;20064;-88
2022/11/23 03:15:07;;;;;;;5.18;2.08;;;;;;;;;;4869625;29;20029;-89
2022/11/23 03:17:34;;;;;;;4.40;1.60;;;;;;;;;;4878037;29;20037;-90
2022/11/23 03:19:59;;;;;;;3.67;1.70;;;;;;;;;;4889915;29;20032;-91
2022/11/23 03:22:25;;;;;;;6.30;2.22;;;;;;;;;;4876476;29;20041;-90
2022/11/23 03:24:50;;;;;;;5.72;2.03;;;;;;;;;;4876990;29;20032;-89
2022/11/23 03:27:15;;;;;;;4.45;1.80;;;;;;;;;;4875423;29;20037;-88
2022/11/23 03:29:41;;;;;;;10.50;2.10;;;;;;;;;;4875065;29;20084;-89
2022/11/23 03:32:06;;;;;;;5.28;1.63;;;;;;;;;;4876934;29;20092;-89
2022/11/23 03:34:31;;;;;;;6.05;1.80;;;;;;;;;;4877159;29;20033;-89
2022/11/23 03:36:57;;;;;;;4.95;1.90;;;;;;;;;;4869427;29;20036;-88
2022/11/23 03:39:22;;;;;;;6.20;1.60;;;;;;;;;;4878483;29;20407;-91
2022/11/23 03:41:48;;;;;;;5.85;2.10;;;;;;;;;;4876629;29;20058;-92
2022/11/23 03:44:14;;;;;;;5.65;2.17;;;;;;;;;;4873992;29;20032;-91
2022/11/23 03:46:39;;;;;;;6.57;1.83;;;;;;;;;;4891298;29;20029;-88
2022/11/23 03:49:05;;;;;;;4.35;1.77;;;;;;;;;;4876600;29;20116;-90
2022/11/23 03:51:30;;;;;;;4.45;1.90;;;;;;;;;;4879791;29;20069;-91
2022/11/23 03:53:55;;;;;;;5.53;1.70;;;;;;;;;;4875540;29;20508;-90
2022/11/23 03:56:21;;;;;;;5.13;1.80;;;;;;;;;;4875563;29;20037;-90
2022/11/23 03:58:46;;;;;;;10.23;2.03;;;;;;;;;;4872552;29;20426;-89
2022/11/23 04:01:11;;;;;;;6.10;1.77;;;;;;;;;;4884030;29;20441;-90
2022/11/23 04:03:37;;;;;;;5.35;1.63;;;;;;;;;;4877841;29;20033;-88
2022/11/23 04:06:02;;;;;;;7.78;1.90;;;;;;;;;;4875205;29;20024;-87
2022/11/23 04:08:28;;;;;;;7.50;2.25;;;;;;;;;;4885232;29;20030;-90
2022/11/23 04:10:57;;;;;;;6.05;1.75;;;;;;;;;;4875984;29;20029;-89
2022/11/23 04:13:23;;;;;;;4.72;2.00;;;;;;;;;;4871595;29;20025;-90
2022/11/23 04:15:48;;;;;;;3.38;1.52;;;;;;;;;;4874142;29;20033;-91
2022/11/23 04:18:14;;;;;;;4.63;1.40;;;;;;;;;;4880284;29;20037;-88
2022/11/23 04:20:39;;;;;;;10.63;2.03;;;;;;;;;;4892039;29;20060;-90
2022/11/23 04:23:05;;;;;;;4.57;1.48;;;;;;;;;;4884376;29;20055;-89
2022/11/23 04:25:30;;;;;;;4.22;1.50;;;;;;;;;;4891854;29;20029;-91
2022/11/23 04:27:56;;;;;;;10.90;1.90;;;;;;;;;;4894562;29;20052;-90
2022/11/23 04:30:21;;;;;;;5.53;1.40;;;;;;;;;;4876463;29;20399;-90
2022/11/23 04:32:47;;;;;;;7.18;1.67;;;;;;;;;;4874251;29;20081;-92
2022/11/23 04:35:12;;;;;;;4.88;1.98;;;;;;;;;;4876531;29;20040;-90
2022/11/23 04:37:37;;;;;;;7.25;1.65;;;;;;;;;;4875177;29;20029;-91
2022/11/23 04:40:03;;;;;;;5.53;1.52;;;;;;;;;;4869988;29;20041;-91
2022/11/23 04:42:29;;;;;;;7.90;1.60;;;;;;;;;;4874819;29;20048;-91
2022/11/23 04:44:56;;;;;;;7.47;1.45;;;;;;;;;;4873295;29;20044;-91
2022/11/23 04:47:21;;;;;;;7.53;2.13;;;;;;;;;;4890071;29;20029;-89
2022/11/23 04:49:47;;;;;;;6.28;1.63;;;;;;;;;;4869975;29;20028;-89
2022/11/23 04:52:12;;;;;;;6.32;1.60;;;;;;;;;;4866565;29;20482;-90
2022/11/23 04:54:38;;;;;;;7.30;1.48;;;;;;;;;;4890934;29;20146;-88
2022/11/23 04:57:03;;;;;;;5.38;1.70;;;;;;;;;;4889408;29;20043;-91
2022/11/23 04:59:28;;;;;;;4.57;1.23;;;;;;;;;;4872010;29;20116;-89
2022/11/23 05:01:54;;;;;;;7.25;1.50;;;;;;;;;;4869868;29;20040;-90
2022/11/23 05:04:19;;;;;;;5.30;1.35;;;;;;;;;;4880631;29;20056;-91
2022/11/23 05:06:45;;;;;;;4.85;1.48;;;;;;;;;;4867123;29;20553;-90
2022/11/23 05:09:11;;;;;;;6.63;1.77;;;;;;;;;;4874440;29;20033;-92
2022/11/23 05:11:36;;;;;;;6.35;1.58;;;;;;;;;;4868062;29;20825;-90
2022/11/23 05:14:02;;;;;;;6.65;1.40;;;;;;;;;;4873223;29;20068;-92
2022/11/23 05:16:27;;;;;;;6.93;1.73;;;;;;;;;;4872181;29;20184;-91
2022/11/23 05:18:53;;;;;;;8.57;1.50;;;;;;;;;;4870459;29;20029;-90
2022/11/23 05:21:18;;;;;;;4.95;1.70;;;;;;;;;;4876161;29;20053;-91
2022/11/23 05:23:43;;;;;;;10.23;2.13;;;;;;;;;;4867767;29;20041;-92
2022/11/23 05:26:11;;;;;;;6.40;1.58;;;;;;;;;;4870975;29;20390;-91
2022/11/23 05:28:37;;;;;;;10.13;1.77;;;;;;;;;;4887133;29;20889;-90
2022/11/23 05:31:03;;;;;;;6.30;1.38;;;;;;;;;;4872539;29;20033;-90
2022/11/23 05:33:29;;;;;;;7.95;1.45;;;;;;;;;;4873208;29;20044;-91
2022/11/23 05:35:54;;;;;;;5.32;1.27;;;;;;;;;;4888544;29;20670;-91
2022/11/23 05:38:19;;;;;;;6.22;1.40;;;;;;;;;;4870542;29;20032;-90
2022/11/23 05:40:45;;;;;;;6.38;1.13;;;;;;;;;;4875512;29;20025;-90
2022/11/23 05:43:11;;;;;;;7.13;1.42;;;;;;;;;;4882362;29;20038;-91
2022/11/23 05:45:37;;;;;;;5.88;1.20;;;;;;;;;;4885336;29;20065;-87
2022/11/23 05:48:02;;;;;;;5.25;1.35;;;;;;;;;;4872098;29;20040;-90
2022/11/23 05:50:29;;;;;;;5.32;1.48;;;;;;;;;;4873309;29;20036;-90
2022/11/23 05:52:58;;;;;;;5.97;1.50;;;;;;;;;;4890000;29;20043;-90
2022/11/23 05:55:24;;;;;;;9.05;1.80;;;;;;;;;;4877140;29;20033;-91
2022/11/23 05:57:49;;;;;;;4.95;1.00;;;;;;;;;;4876157;29;20060;-90
2022/11/23 06:00:15;;;;;;;5.32;1.20;;;;;;;;;;4873142;29;20033;-89
2022/11/23 06:02:41;;;;;;;6.60;1.58;;;;;;;;;;4871301;29;20486;-91
2022/11/23 06:05:07;;;;;;;6.38;1.17;;;;;;;;;;4881541;29;20031;-91
2022/11/23 06:07:33;;;;;;;4.22;1.50;;;;;;;;;;4873475;29;20029;-90
2022/11/23 06:09:59;;;;;;;6.50;1.63;;;;;;;;;;4877158;29;20021;-87
2022/11/23 06:12:26;;;;;;;10.00;1.83;;;;;;;;;;4867594;29;20039;-91
2022/11/23 06:15:49;;;;;;;;;;;;;;;;;;;;;
2022/11/23 06:18:15;;;;;;;6.68;1.40;;;;;;;;;;4783584;29;20057;-91
2022/11/23 06:20:40;;;;;;;9.98;1.40;;;;;;;;;;4877749;29;20096;-91
2022/11/23 06:23:56;;;;;;;6.53;1.42;;;;;;;;;;4870546;29;20084;-88
2022/11/23 06:26:22;;;;;;;8.70;1.73;;;;;;;;;;4871534;29;20029;-88
2022/11/23 06:28:47;;;;;;;6.65;1.20;;;;;;;;;;4872347;29;20095;-91
2022/11/23 06:31:12;;;;;;;9.05;1.45;;;;;;;;;;4869626;29;20044;-91
2022/11/23 06:33:40;;;;;;;6.15;1.33;;;;;;;;;;4867234;29;20108;-90
2022/11/23 06:36:06;;;;;;;6.22;1.38;;;;;;;;;;4869792;29;20549;-91
2022/11/23 06:38:32;;;;;;;6.25;1.23;;;;;;;;;;4890510;29;20029;-91
2022/11/23 06:41:07;;;;;;;7.07;1.92;;;;;;;;;;4888734;29;20514;-87
2022/11/23 06:43:32;;;;;;;7.20;1.30;;;;;;;;;;4891061;29;20086;-89
2022/11/23 06:46:05;;;;;;;6.50;1.42;;;;;;;;;;4876172;29;20057;-92
2022/11/23 06:48:31;;;;;;;9.45;1.35;;;;;;;;;;4890272;29;20033;-90
2022/11/23 06:51:00;;;;;;;7.57;1.27;;;;;;;;;;4880627;29;20034;-91
2022/11/23 06:53:27;;;;;;;5.95;1.35;;;;;;;;;;4886051;29;20037;-91
2022/11/23 06:55:56;;;;;;;7.32;1.40;;;;;;;;;;4874886;29;20371;-90
2022/11/23 06:58:21;;;;;;;4.07;1.05;;;;;;;;;;4885837;29;20467;-90
2022/11/23 07:00:47;;;;;;;5.90;1.48;;;;;;;;;;4868911;29;20116;-93
2022/11/23 07:03:21;;;;;;;12.68;2.00;;;;;;;;;;4873412;29;20033;-90
2022/11/23 07:05:47;;;;;;;5.53;1.35;;;;;;;;;;4884967;29;20041;-91
2022/11/23 07:08:12;;;;;;;11.55;1.95;;;;;;;;;;4871192;29;20041;-92
2022/11/23 07:10:38;;;;;;;7.55;2.00;;;;;;;;;;4869931;29;20025;-91
2022/11/23 07:13:04;;;;;;;8.68;1.67;;;;;;;;;;4888560;29;20033;-91
2022/11/23 07:15:30;;;;;;;5.25;1.38;;;;;;;;;;4871878;29;20033;-89
2022/11/23 07:17:55;;;;;;;9.50;1.65;;;;;;;;;;4863120;29;20542;-91
2022/11/23 07:20:21;;;;;;;8.40;1.73;;;;;;;;;;4871407;29;20089;-87
2022/11/23 07:22:46;;;;;;;10.10;1.60;;;;;;;;;;4871963;29;20045;-90
2022/11/23 07:25:17;;;;;;;7.40;1.40;;;;;;;;;;4884099;29;20032;-89
2022/11/23 07:27:42;;;;;;;7.32;1.75;;;;;;;;;;4870462;29;20489;-89
2022/11/23 07:30:09;;;;;;;9.18;1.42;;;;;;;;;;4870181;29;20033;-91
2022/11/23 07:32:34;;;;;;;6.43;1.35;;;;;;;;;;4884698;29;20030;-88
2022/11/23 07:35:00;;;;;;;8.52;2.05;;;;;;;;;;4870430;29;20052;-89
2022/11/23 07:37:25;;;;;;;6.60;1.50;;;;;;;;;;4862411;29;20529;-89
2022/11/23 07:39:51;;;;;;;8.15;1.65;;;;;;;;;;4868605;29;20032;-89
2022/11/23 07:42:18;;;;;;;7.70;1.60;;;;;;;;;;4868015;29;20036;-87
2022/11/23 07:44:44;;;;;;;7.80;1.60;;;;;;;;;;4874945;29;20779;-88
2022/11/23 07:47:09;;;;;;;12.75;2.15;;;;;;;;;;4890841;29;20128;-88
2022/11/23 07:49:34;;;;;;;6.53;1.42;;;;;;;;;;4866126;29;20037;-86
2022/11/23 07:52:00;;;;;;;8.30;1.92;;;;;;;;;;4871202;29;20194;-88
2022/11/23 07:54:25;;;;;;;6.78;1.77;;;;;;;;;;4887580;29;20017;-89
2022/11/23 07:56:51;;;;;;;9.25;1.52;;;;;;;;;;4873310;29;20037;-87
2022/11/23 07:59:16;;;;;;;11.55;1.70;;;;;;;;;;4868732;29;20039;-86
2022/11/23 08:01:41;;;;;;;5.97;1.25;;;;;;;;;;4890825;29;20116;-87
2022/11/23 08:04:07;;;;;;;5.85;1.60;;;;;;;;;;4876381;29;20390;-87
2022/11/23 08:06:32;;;;;;;6.18;1.25;;;;;;;;;;4890926;29;20048;-87
2022/11/23 08:08:58;;;;;;;8.65;1.70;;;;;;;;;;4880187;29;20039;-89
2022/11/23 08:11:23;;;;;;;6.20;1.10;;;;;;;;;;4877005;29;20041;-89
2022/11/23 08:13:49;;;;;;;5.38;1.20;;;;;;;;;;4879878;29;20029;-88
2022/11/23 08:16:14;;;;;;;7.43;1.30;;;;;;;;;;4878847;29;20025;-87
2022/11/23 08:18:40;;;;;;;4.57;1.20;;;;;;;;;;4873244;29;20120;-89
2022/11/23 08:21:05;;;;;;;11.15;1.70;;;;;;;;;;4870202;29;20033;-87
2022/11/23 08:23:31;;;;;;;7.03;1.50;;;;;;;;;;4879603;29;20089;-87
2022/11/23 08:25:57;;;;;;;7.10;1.35;;;;;;;;;;4886233;29;20036;-88
2022/11/23 08:28:22;;;;;;;7.75;1.45;;;;;;;;;;4878278;29;20029;-89
2022/11/23 08:30:48;;;;;;;5.25;1.25;;;;;;;;;;4880341;29;20068;-89
2022/11/23 08:33:14;;;;;;;4.35;1.00;;;;;;;;;;4878094;29;20036;-89
2022/11/23 08:35:41;;;;;;;6.40;1.30;;;;;;;;;;4894879;29;20033;-89
2022/11/23 08:38:08;;;;;;;8.05;1.50;;;;;;;;;;4886037;29;20028;-87
2022/11/23 08:40:34;;;;;;;8.55;1.70;;;;;;;;;;4876002;29;20557;-90
2022/11/23 08:42:59;;;;;;;4.13;1.00;;;;;;;;;;4875775;29;20035;-89
2022/11/23 08:45:26;;;;;;;3.85;1.02;;;;;;;;;;4874587;29;20402;-90
2022/11/23 08:47:51;;;;;;;8.20;1.20;;;;;;;;;;4876514;29;20031;-89
2022/11/23 08:50:17;;;;;;;6.50;1.38;;;;;;;;;;4874230;29;20029;-89
2022/11/23 08:52:43;;;;;;;8.40;1.30;;;;;;;;;;4878033;29;20036;-88
2022/11/23 08:55:08;;;;;;;8.73;1.20;;;;;;;;;;4892028;29;20037;-89
2022/11/23 08:57:34;;;;;;;5.03;1.20;;;;;;;;;;4889338;29;20044;-86
2022/11/23 08:59:59;;;;;;;7.03;1.50;;;;;;;;;;4874723;29;20029;-89
2022/11/23 09:02:25;;;;;;;9.55;1.40;;;;;;;;;;4868350;29;20061;-89
2022/11/23 09:04:50;;;;;;;8.15;1.52;;;;;;;;;;4878256;29;20068;-87
2022/11/23 09:07:16;;;;;;;7.80;1.42;;;;;;;;;;4868952;29;20037;-89
2022/11/23 09:09:41;;;;;;;7.78;1.13;;;;;;;;;;4871190;29;20095;-88
2022/11/23 09:12:07;;;;;;;7.25;1.52;;;;;;;;;;4890144;29;20084;-88
2022/11/23 09:14:33;;;;;;;6.72;1.20;;;;;;;;;;4879897;29;20029;-90
2022/11/23 09:17:00;;;;;;;10.73;1.67;;;;;;;;;;4877449;29;20501;-88
2022/11/23 09:19:26;;;;;;;5.65;1.13;;;;;;;;;;4891421;29;20040;-88
2022/11/23 09:21:51;;;;;;;4.07;1.13;;;;;;;;;;4877113;29;20204;-88
2022/11/23 09:24:17;;;;;;;5.90;1.30;;;;;;;;;;4874218;29;20021;-89
2022/11/23 09:26:42;;;;;;;7.60;1.55;;;;;;;;;;4875579;29;20037;-86
2022/11/23 09:29:08;;;;;;;9.80;1.50;;;;;;;;;;4880146;29;20093;-88
2022/11/23 09:31:35;;;;;;;9.80;1.33;;;;;;;;;;4890682;29;20036;-90
2022/11/23 09:34:00;;;;;;;10.27;2.20;;;;;;;;;;4877491;29;20036;-88
2022/11/23 09:36:26;;;;;;;8.20;1.30;;;;;;;;;;4880343;29;20490;-88
2022/11/23 09:38:52;;;;;;;7.38;1.48;;;;;;;;;;4873948;29;20041;-89
2022/11/23 09:41:56;;;;;;;6.10;1.33;;;;;;;;;;4874225;29;20263;-89
2022/11/23 09:44:43;;;;;;;7.90;1.52;;;;;;;;;;4873555;29;20041;-88
2022/11/23 09:47:11;;;;;;;7.88;1.58;;;;;;;;;;4872601;29;20123;-87
2022/11/23 09:49:58;;;;;;;7.07;1.38;;;;;;;;;;4882430;29;20060;-87
2022/11/23 09:52:24;;;;;;;5.00;1.10;;;;;;;;;;4884408;29;20479;-87
2022/11/23 09:54:55;;;;;;;6.80;1.08;;;;;;;;;;4896357;29;20025;-88
2022/11/23 09:57:26;;;;;;;6.93;1.25;;;;;;;;;;4889428;29;20033;-88
2022/11/23 09:59:59;;;;;;;3.33;1.17;;;;;;;;;;4877000;29;20036;-89
2022/11/23 10:02:30;;;;;;;6.82;1.40;;;;;;;;;;4874749;29;20497;-88
2022/11/23 10:04:58;;;;;;;5.28;1.20;;;;;;;;;;4872804;29;20132;-89
2022/11/23 10:08:15;;;;;;;7.88;1.38;;;;;;;;;;4870246;29;20029;-88
2022/11/23 10:10:45;;;;;;;4.60;1.13;;;;;;;;;;4845233;29;20037;-88
2022/11/23 10:13:54;;;;;;;6.05;1.45;;;;;;;;;;4888959;29;20092;-88
2022/11/23 10:16:35;;;;;;;8.57;1.38;;;;;;;;;;4878306;29;20090;-90
2022/11/23 10:19:19;;;;;;;7.28;1.60;;;;;;;;;;4875100;29;20129;-90
2022/11/23 10:21:54;;;;;;;6.63;1.30;;;;;;;;;;4869365;29;20049;-89
2022/11/23 10:24:27;;;;;;;7.28;1.60;;;;;;;;;;4882192;29;20131;-90
2022/11/23 10:26:53;;;;;;;9.60;1.67;;;;;;;;;;4879104;29;20044;-88
2022/11/23 10:29:28;;;;;;;4.15;1.17;;;;;;;;;;4877582;29;20033;-88
2022/11/23 10:31:55;;;;;;;3.88;1.20;;;;;;;;;;4869470;29;20446;-88
2022/11/23 10:34:51;;;;;;;6.45;1.20;;;;;;;;;;4880422;29;20074;-89
2022/11/23 10:37:17;;;;;;;5.00;1.42;;;;;;;;;;4875384;29;20037;-88
2022/11/23 10:39:43;;;;;;;4.85;1.02;;;;;;;;;;4878009;29;20087;-86
2022/11/23 10:42:23;;;;;;;6.05;1.40;;;;;;;;;;4886712;29;20043;-90
2022/11/23 10:44:53;;;;;;;5.10;1.10;;;;;;;;;;4892130;29;20029;-88
2022/11/23 10:47:58;;;;;;;6.63;1.20;;;;;;;;;;4887559;29;20029;-89
2022/11/23 10:50:25;;;;;;;6.38;1.08;;;;;;;;;;4801231;29;20045;-89
2022/11/23 10:53:19;;;;;;;7.15;1.30;;;;;;;;;;4784930;29;20076;-90
2022/11/23 10:55:53;;;;;;;9.43;1.20;;;;;;;;;;4780876;29;20136;-89
2022/11/23 10:58:43;;;;;;;6.50;1.23;;;;;;;;;;4823256;29;20454;-89
2022/11/23 11:01:15;;;;;;;5.45;0.98;;;;;;;;;;4886331;29;20029;-87
2022/11/23 11:03:41;;;;;;;5.80;1.15;;;;;;;;;;4871130;29;20112;-88
2022/11/23 11:06:07;;;;;;;3.60;0.90;;;;;;;;;;4877039;29;20136;-87
2022/11/23 11:08:35;;;;;;;5.18;1.05;;;;;;;;;;4873051;29;20033;-90
2022/11/23 11:11:06;;;;;;;4.57;1.02;;;;;;;;;;4877134;29;20452;-88
2022/11/23 11:13:41;;;;;;;6.93;1.02;;;;;;;;;;4867105;29;20025;-89
2022/11/23 11:16:32;;;;;;;5.60;1.10;;;;;;;;;;4873917;29;20500;-90
2022/11/23 11:19:20;;;;;;;5.30;0.70;;;;;;;;;;4874891;29;20062;-89
2022/11/23 11:21:46;;;;;;;6.47;0.90;;;;;;;;;;4873388;29;20136;-88
2022/11/23 11:24:23;;;;;;;6.05;1.00;;;;;;;;;;4874872;29;20615;-89
2022/11/23 11:26:52;;;;;;;6.28;1.33;;;;;;;;;;4876292;29;20505;-86
2022/11/23 11:29:38;;;;;;;6.78;1.17;;;;;;;;;;4890472;29;20181;-89
2022/11/23 11:32:19;;;;;;;3.17;0.82;;;;;;;;;;4874683;29;20055;-90
2022/11/23 11:34:57;;;;;;;5.15;1.10;;;;;;;;;;4897743;29;20118;-90
2022/11/23 11:37:45;;;;;;;4.53;1.20;;;;;;;;;;4877379;29;20040;-89
2022/11/23 11:40:36;;;;;;;3.20;1.00;;;;;;;;;;4877020;29;20028;-90
2022/11/23 11:44:05;;;;;;;3.63;0.90;;;;;;;;;;4891215;29;20039;-89
2022/11/23 11:46:39;;;;;;;5.90;1.40;;;;;;;;;;4837146;29;20038;-88
2022/11/23 11:49:10;;;;;;;4.95;0.75;;;;;;;;;;4833143;29;20033;-87
2022/11/23 11:51:40;;;;;;;7.93;1.15;;;;;;;;;;4858059;29;20406;-88
2022/11/23 11:54:21;;;;;;;4.05;1.42;;;;;;;;;;4877208;29;20032;-90
2022/11/23 11:56:50;;;;;;;7.00;1.08;;;;;;;;;;4866804;29;20059;-88
2022/11/23 11:59:28;;;;;;;4.93;1.02;;;;;;;;;;4874296;29;20033;-89
2022/11/23 12:02:18;;;;;;;6.95;1.08;;;;;;;;;;4875339;29;20029;-87
2022/11/23 12:05:11;;;;;;;4.70;0.90;;;;;;;;;;4890142;29;20048;-89
2022/11/23 12:07:57;;;;;;;;;;;;;;;;;;4887822;29;20036;-88
2022/11/23 12:10:57;;;;;;;3.88;0.88;;;;;;;;;;4875968;29;19911;-86
2022/11/23 12:13:28;;;;;;;2.28;0.70;;;;;;;;;;4876596;29;20043;-88
2022/11/23 12:15:58;;;;;;;5.65;0.88;;;;;;;;;;4895505;29;20520;-91
2022/11/23 12:18:50;;;;;;;2.42;0.80;;;;;;;;;;4873097;29;20061;-89
2022/11/23 12:21:30;;;;;;;5.68;0.90;;;;;;;;;;4899904;29;20041;-89
2022/11/23 12:24:22;;;;;;;3.00;0.80;;;;;;;;;;4872083;29;20482;-90
2022/11/23 12:27:12;;;;;;;3.55;0.70;;;;;;;;;;4869892;29;20031;-91
2022/11/23 12:30:15;;;;;;;6.05;1.13;;;;;;;;;;4874547;29;20056;-89
2022/11/23 12:32:53;;;;;;;4.75;0.85;;;;;;;;;;4896696;29;20036;-91
2022/11/23 12:35:31;;;;;;;5.38;0.82;;;;;;;;;;4869443;29;20025;-91
2022/11/23 12:38:22;;;;;;;4.28;0.80;;;;;;;;;;4876478;29;20485;-93
2022/11/23 12:41:15;;;;;;;3.58;0.95;;;;;;;;;;4887786;29;20706;-90
2022/11/23 12:44:14;;;;;;;3.55;0.68;;;;;;;;;;4897631;29;20790;-91
2022/11/23 12:46:54;;;;;;;1.73;0.70;;;;;;;;;;4871381;29;20498;-89
2022/11/23 12:49:52;;;;;;;5.40;0.90;;;;;;;;;;4887149;29;20372;-91
2022/11/23 12:52:56;;;;;;;5.28;1.08;;;;;;;;;;4880059;29;20021;-90
2022/11/23 12:55:25;;;;;;;;;;;;;;;;;;4880652;29;20025;-90
2022/11/23 12:58:11;;;;;;;4.72;1.00;;;;;;;;;;4899433;29;20416;-91
2022/11/23 13:00:48;;;;;;;4.22;0.70;;;;;;;;;;4878151;29;20029;-91
2022/11/23 13:03:32;;;;;;;2.65;0.90;;;;;;;;;;4876412;29;20366;-87
2022/11/23 13:06:31;;;;;;;3.33;0.80;;;;;;;;;;4886998;29;20032;-91
2022/11/23 13:09:06;;;;;;;4.65;0.90;;;;;;;;;;4879400;29;20040;-92
2022/11/23 13:12:07;;;;;;;3.13;0.70;;;;;;;;;;4878318;29;20044;-91
2022/11/23 13:15:07;;;;;;;2.28;0.50;;;;;;;;;;4874090;29;20036;-92
2022/11/23 13:18:10;;;;;;;5.07;1.15;;;;;;;;;;4869822;29;20487;-88
2022/11/23 13:21:13;;;;;;;2.10;0.82;;;;;;;;;;4892034;29;20061;-91
2022/11/23 13:23:39;;;;;;;3.15;0.85;;;;;;;;;;4871586;29;20053;-91
2022/11/23 13:26:22;;;;;;;3.85;0.85;;;;;;;;;;4876045;29;20037;-90
2022/11/23 13:28:50;;;;;;;2.60;0.68;;;;;;;;;;4874699;29;20073;-91
2022/11/23 13:31:15;;;;;;;2.53;0.70;;;;;;;;;;4876621;29;20119;-92
2022/11/23 13:33:48;;;;;;;2.70;0.82;;;;;;;;;;4875869;29;20107;-91
2022/11/23 13:36:29;;;;;;;1.48;0.60;;;;;;;;;;4879401;29;20406;-91
2022/11/23 13:38:58;;;;;;;2.72;0.70;;;;;;;;;;4876168;29;20040;-90
2022/11/23 13:41:43;;;;;;;1.50;0.60;;;;;;;;;;4875402;29;20045;-90
2022/11/23 13:44:14;;;;;;;3.47;0.73;;;;;;;;;;4886125;29;20586;-91
2022/11/23 13:46:40;;;;;;;3.97;0.90;;;;;;;;;;4877906;29;20040;-92
2022/11/23 13:49:28;;;;;;;2.45;0.70;;;;;;;;;;4889428;29;20036;-92
2022/11/23 13:52:19;;;;;;;1.98;0.60;;;;;;;;;;4877863;29;20029;-91
2022/11/23 13:55:19;;;;;;;4.25;0.70;;;;;;;;;;4887539;29;20545;-89
2022/11/23 13:58:20;;;;;;;3.63;0.98;;;;;;;;;;4877024;29;20481;-89
2022/11/23 14:00:54;;;;;;;2.40;0.68;;;;;;;;;;4840898;29;20527;-90
2022/11/23 14:03:47;;;;;;;2.92;0.50;;;;;;;;;;4875490;29;20486;-88
2022/11/23 14:06:31;;;;;;;1.27;0.60;;;;;;;;;;4878641;29;20463;-87
2022/11/23 14:09:19;;;;;;;3.25;0.80;;;;;;;;;;4874428;29;20047;-85
2022/11/23 14:12:35;;;;;;;3.13;0.63;;;;;;;;;;4877021;29;20029;-87
2022/11/23 14:15:12;;;;;;;3.22;0.73;;;;;;;;;;4846654;29;20446;-87
2022/11/23 14:18:24;;;;;;;4.95;0.82;;;;;;;;;;4872182;29;20065;-87
2022/11/23 14:21:23;;;;;;;2.53;0.60;;;;;;;;;;4879367;29;20021;-85
2022/11/23 14:24:07;;;;;;;2.25;0.60;;;;;;;;;;4873732;29;20041;-86
2022/11/23 14:26:42;;;;;;;2.90;0.60;;;;;;;;;;4876164;29;20572;-86
2022/11/23 14:29:33;;;;;;;2.88;1.05;;;;;;;;;;4886036;29;20057;-87
2022/11/23 14:32:05;;;;;;;3.55;0.60;;;;;;;;;;4869735;29;20074;-87
2022/11/23 14:34:50;;;;;;;3.17;0.88;;;;;;;;;;4872861;29;20127;-86
2022/11/23 14:38:02;;;;;;;3.50;0.73;;;;;;;;;;4881108;29;20040;-86
2022/11/23 14:40:56;;;;;;;2.30;1.02;;;;;;;;;;4871814;29;20049;-85
2022/11/23 14:43:25;;;;;;;3.78;0.80;;;;;;;;;;4874937;29;20059;-86
2022/11/23 14:45:51;;;;;;;4.00;0.80;;;;;;;;;;4871210;29;20124;-85
2022/11/23 14:48:27;;;;;;;3.80;0.80;;;;;;;;;;4866382;29;20498;-86
2022/11/23 14:51:00;;;;;;;2.15;0.82;;;;;;;;;;4870241;29;20111;-86
2022/11/23 14:53:32;;;;;;;3.03;0.73;;;;;;;;;;4875071;29;20045;-86
2022/11/23 14:56:00;;;;;;;3.72;0.80;;;;;;;;;;4874836;29;20380;-85
2022/11/23 14:58:30;;;;;;;4.03;1.00;;;;;;;;;;4875492;29;20116;-85
2022/11/23 15:01:01;;;;;;;2.38;0.80;;;;;;;;;;4868827;29;20037;-85
2022/11/23 15:03:29;;;;;;;1.52;0.63;;;;;;;;;;4879206;29;20060;-84
2022/11/23 15:06:17;;;;;;;1.83;0.90;;;;;;;;;;4876514;29;20080;-85
2022/11/23 15:08:56;;;;;;;3.67;1.13;;;;;;;;;;4886481;29;20036;-84
2022/11/23 15:11:26;;;;;;;3.08;0.98;;;;;;;;;;4871916;29;20033;-85
2022/11/23 15:13:54;;;;;;;2.72;0.85;;;;;;;;;;4881698;29;20782;-84